Sunday, April 22, 2018, 5:40 PM EDT
Back to Local

KHPN, White Plains Westchester

Location: Greenwich, NY, United States Lat: 41.067
Local Time: 5:40 PM EDT (21:40 GMT) Lon: -73.7
Time Zone: US/Eastern Elev: 439 ft

Show me the last for .
Show Decoded

2018-04-22 16:56 METAR KHPN 222056Z 30003KT 10SM CLR 17/M10 A3031 RMK AO2 SLP264 T01721100 56016
                 =
2018-04-22 15:56 METAR KHPN 221956Z 31005KT 10SM CLR 17/M09 A3031 RMK AO2 SLP267 T01671094 =
2018-04-22 14:56 METAR KHPN 221856Z 32008KT 10SM CLR 17/M08 A3033 RMK AO2 SLP273 T01671083 =
2018-04-22 13:56 METAR KHPN 221756Z 32007KT 10SM CLR 16/M09 A3035 RMK AO2 SLP280 T01561094 10156
                 20083 56015 =
2018-04-22 12:56 METAR KHPN 221656Z 28008G15KT 10SM CLR 15/M10 A3036 RMK AO2 SLP283 T01501100 =
2018-04-22 11:56 METAR KHPN 221556Z 31013KT 10SM CLR 14/M09 A3038 RMK AO2 SLP290 T01441094 =
2018-04-22 10:56 METAR KHPN 221456Z 29010KT 10SM CLR 13/M09 A3040 RMK AO2 SLP296 T01281089 51001
                 =
2018-04-22 09:56 METAR KHPN 221356Z 30005KT 10SM CLR 11/M07 A3040 RMK AO2 SLP296 T01111072 =
2018-04-22 08:56 METAR KHPN 221256Z 29006KT 10SM CLR 10/M08 A3040 RMK AO2 SLP295 T01001078 =
2018-04-22 07:56 METAR KHPN 221156Z 30003KT 10SM CLR 08/M06 A3039 RMK AO2 SLP295 T00831056 10083
                 20017 53013 =
2018-04-22 06:56 METAR KHPN 221056Z 31006KT 10SM CLR 03/M04 A3038 RMK AO2 SLP292 T00331039 =
2018-04-22 05:56 METAR KHPN 220956Z 32005KT 10SM CLR 03/M08 A3036 RMK AO2 SLP285 T00281078 =
2018-04-22 04:56 METAR KHPN 220856Z 33010KT 10SM CLR 03/M07 A3035 RMK AO2 SLP283 T00281072 50002
                 =
2018-04-22 03:56 METAR KHPN 220756Z 33006KT 10SM CLR 03/M06 A3036 RMK AO2 SLP285 T00331061 =
2018-04-22 02:56 METAR KHPN 220656Z 33007KT 10SM CLR 02/M03 A3035 RMK AO2 SLP282 T00221033 =
2018-04-22 01:56 METAR KHPN 220556Z 32005KT 10SM CLR 06/M07 A3035 RMK AO2 SLP280 T00561067 10117
                 20033 50007 =
2018-04-22 00:56 METAR KHPN 220456Z AUTO 34005KT 10SM CLR 07/M08 A3035 RMK AO2 SLP280 T00671078
                 401500006 =
2018-04-21 23:56 METAR KHPN 220356Z 34004KT 10SM CLR 07/M05 A3034 RMK AO2 SLP277 T00671050 =
2018-04-21 22:56 METAR KHPN 220256Z 00000KT 10SM CLR 08/M04 A3033 RMK AO2 SLP273 T00781044 51017
                 =
2018-04-21 21:56 METAR KHPN 220156Z 31006KT 10SM CLR 08/M06 A3031 RMK AO2 SLP269 T00831056 =
2018-04-21 20:56 METAR KHPN 220056Z 29005KT 10SM CLR 11/M06 A3029 RMK AO2 SLP261 T01111061 =
2018-04-21 19:56 METAR KHPN 212356Z 30005KT 10SM CLR 11/M06 A3028 RMK AO2 SLP256 T01111056 10150
                 20111 53011 =
2018-04-21 18:56 METAR KHPN 212256Z 31009KT 10SM CLR 13/M07 A3025 RMK AO2 SLP247 T01331072 =
2018-04-21 17:56 METAR KHPN 212156Z 30011KT 10SM CLR 14/M07 A3024 RMK AO2 SLP243 T01441072 =

Support USWX by starting your Amazon purchase here.